sensor_id;sensor_type;location;lat;lon;timestamp;temperature;humidity
71208;DHT22;58938;49.868;8.646;2022-08-02T00:00:43;24.90;51.90
71208;DHT22;58938;49.868;8.646;2022-08-02T00:03:08;24.80;51.80
71208;DHT22;58938;49.868;8.646;2022-08-02T00:05:34;24.80;51.90
71208;DHT22;58938;49.868;8.646;2022-08-02T00:08:00;24.80;51.90
71208;DHT22;58938;49.868;8.646;2022-08-02T00:10:25;24.80;51.90
71208;DHT22;58938;49.868;8.646;2022-08-02T00:12:51;24.70;52.00
71208;DHT22;58938;49.868;8.646;2022-08-02T00:15:18;24.70;52.10
71208;DHT22;58938;49.868;8.646;2022-08-02T00:17:44;24.60;52.10
71208;DHT22;58938;49.868;8.646;2022-08-02T00:20:10;24.60;52.10
71208;DHT22;58938;49.868;8.646;2022-08-02T00:22:36;24.60;52.20
71208;DHT22;58938;49.868;8.646;2022-08-02T00:25:03;24.50;52.30
71208;DHT22;58938;49.868;8.646;2022-08-02T00:27:29;24.50;52.30
71208;DHT22;58938;49.868;8.646;2022-08-02T00:29:55;24.50;52.40
71208;DHT22;58938;49.868;8.646;2022-08-02T00:32:21;24.50;52.40
71208;DHT22;58938;49.868;8.646;2022-08-02T00:34:47;24.50;52.40
71208;DHT22;58938;49.868;8.646;2022-08-02T00:37:13;24.50;52.40
71208;DHT22;58938;49.868;8.646;2022-08-02T00:39:39;24.40;52.50
71208;DHT22;58938;49.868;8.646;2022-08-02T00:42:04;24.40;52.50
71208;DHT22;58938;49.868;8.646;2022-08-02T00:44:30;24.40;52.60
71208;DHT22;58938;49.868;8.646;2022-08-02T00:46:56;24.40;52.80
71208;DHT22;58938;49.868;8.646;2022-08-02T00:49:21;24.40;52.80
71208;DHT22;58938;49.868;8.646;2022-08-02T00:51:47;24.30;52.90
71208;DHT22;58938;49.868;8.646;2022-08-02T00:54:12;24.30;53.00
71208;DHT22;58938;49.868;8.646;2022-08-02T00:56:39;24.30;53.10
71208;DHT22;58938;49.868;8.646;2022-08-02T00:59:04;24.30;53.10
71208;DHT22;58938;49.868;8.646;2022-08-02T01:01:30;24.30;53.10
71208;DHT22;58938;49.868;8.646;2022-08-02T01:04:06;24.30;53.10
71208;DHT22;58938;49.868;8.646;2022-08-02T01:06:32;24.20;53.10
71208;DHT22;58938;49.868;8.646;2022-08-02T01:08:59;24.20;53.10
71208;DHT22;58938;49.868;8.646;2022-08-02T01:11:26;24.20;53.20
71208;DHT22;58938;49.868;8.646;2022-08-02T01:13:52;24.20;53.20
71208;DHT22;58938;49.868;8.646;2022-08-02T01:16:20;24.10;53.20
71208;DHT22;58938;49.868;8.646;2022-08-02T01:18:53;24.10;53.20
71208;DHT22;58938;49.868;8.646;2022-08-02T01:21:40;24.10;53.30
71208;DHT22;58938;49.868;8.646;2022-08-02T01:24:29;24.10;53.30
71208;DHT22;58938;49.868;8.646;2022-08-02T01:27:39;24.10;53.30
71208;DHT22;58938;49.868;8.646;2022-08-02T01:30:07;24.00;53.30
71208;DHT22;58938;49.868;8.646;2022-08-02T01:32:38;24.00;53.40
71208;DHT22;58938;49.868;8.646;2022-08-02T01:35:13;24.00;53.50
71208;DHT22;58938;49.868;8.646;2022-08-02T01:37:50;24.00;53.50
71208;DHT22;58938;49.868;8.646;2022-08-02T01:40:22;24.00;53.60
71208;DHT22;58938;49.868;8.646;2022-08-02T01:42:52;24.00;53.60
71208;DHT22;58938;49.868;8.646;2022-08-02T01:45:18;24.00;53.70
71208;DHT22;58938;49.868;8.646;2022-08-02T01:47:45;24.00;53.70
71208;DHT22;58938;49.868;8.646;2022-08-02T01:50:14;24.00;53.90
71208;DHT22;58938;49.868;8.646;2022-08-02T01:52:46;24.00;54.00
71208;DHT22;58938;49.868;8.646;2022-08-02T01:55:16;24.00;54.10
71208;DHT22;58938;49.868;8.646;2022-08-02T01:57:48;24.00;54.10
71208;DHT22;58938;49.868;8.646;2022-08-02T02:00:16;23.90;54.10
71208;DHT22;58938;49.868;8.646;2022-08-02T02:02:44;23.90;54.20
71208;DHT22;58938;49.868;8.646;2022-08-02T02:05:15;23.90;54.10
71208;DHT22;58938;49.868;8.646;2022-08-02T02:07:43;23.90;54.20
71208;DHT22;58938;49.868;8.646;2022-08-02T02:10:13;23.90;54.20
71208;DHT22;58938;49.868;8.646;2022-08-02T02:12:40;23.80;54.10
71208;DHT22;58938;49.868;8.646;2022-08-02T02:15:09;23.80;54.10
71208;DHT22;58938;49.868;8.646;2022-08-02T02:17:35;23.80;54.10
71208;DHT22;58938;49.868;8.646;2022-08-02T02:20:03;23.80;54.10
71208;DHT22;58938;49.868;8.646;2022-08-02T02:22:31;23.80;54.10
71208;DHT22;58938;49.868;8.646;2022-08-02T02:24:57;23.70;54.20
71208;DHT22;58938;49.868;8.646;2022-08-02T02:27:23;23.70;54.20
71208;DHT22;58938;49.868;8.646;2022-08-02T02:29:51;23.70;54.20
71208;DHT22;58938;49.868;8.646;2022-08-02T02:32:18;23.70;54.30
71208;DHT22;58938;49.868;8.646;2022-08-02T02:34:46;23.60;54.40
71208;DHT22;58938;49.868;8.646;2022-08-02T02:37:18;23.60;54.50
71208;DHT22;58938;49.868;8.646;2022-08-02T02:39:45;23.60;54.50
71208;DHT22;58938;49.868;8.646;2022-08-02T02:42:15;23.60;54.90
71208;DHT22;58938;49.868;8.646;2022-08-02T02:44:42;23.60;55.10
71208;DHT22;58938;49.868;8.646;2022-08-02T02:47:09;23.50;55.10
71208;DHT22;58938;49.868;8.646;2022-08-02T02:49:36;23.50;55.20
71208;DHT22;58938;49.868;8.646;2022-08-02T02:52:04;23.50;55.20
71208;DHT22;58938;49.868;8.646;2022-08-02T02:54:32;23.50;55.30
71208;DHT22;58938;49.868;8.646;2022-08-02T02:56:58;23.50;55.40
71208;DHT22;58938;49.868;8.646;2022-08-02T02:59:25;23.50;55.40
71208;DHT22;58938;49.868;8.646;2022-08-02T03:01:51;23.50;55.40
71208;DHT22;58938;49.868;8.646;2022-08-02T03:04:18;23.50;55.30
71208;DHT22;58938;49.868;8.646;2022-08-02T03:06:45;23.50;55.50
71208;DHT22;58938;49.868;8.646;2022-08-02T03:09:10;23.50;55.50
71208;DHT22;58938;49.868;8.646;2022-08-02T03:11:37;23.40;55.60
71208;DHT22;58938;49.868;8.646;2022-08-02T03:14:04;23.40;55.60
71208;DHT22;58938;49.868;8.646;2022-08-02T03:16:30;23.40;55.70
71208;DHT22;58938;49.868;8.646;2022-08-02T03:18:57;23.40;55.70
71208;DHT22;58938;49.868;8.646;2022-08-02T03:21:26;23.40;55.80
71208;DHT22;58938;49.868;8.646;2022-08-02T03:23:51;23.40;55.80
71208;DHT22;58938;49.868;8.646;2022-08-02T03:26:17;23.40;55.80
71208;DHT22;58938;49.868;8.646;2022-08-02T03:28:43;23.30;55.90
71208;DHT22;58938;49.868;8.646;2022-08-02T03:31:09;23.40;55.90
71208;DHT22;58938;49.868;8.646;2022-08-02T03:33:35;23.40;55.90
71208;DHT22;58938;49.868;8.646;2022-08-02T03:36:10;23.30;55.90
71208;DHT22;58938;49.868;8.646;2022-08-02T03:38:36;23.30;56.00
71208;DHT22;58938;49.868;8.646;2022-08-02T03:41:03;23.30;56.00
71208;DHT22;58938;49.868;8.646;2022-08-02T03:43:30;23.30;56.00
71208;DHT22;58938;49.868;8.646;2022-08-02T03:45:57;23.30;56.10
71208;DHT22;58938;49.868;8.646;2022-08-02T03:48:23;23.30;56.10
71208;DHT22;58938;49.868;8.646;2022-08-02T03:50:49;23.30;56.10
71208;DHT22;58938;49.868;8.646;2022-08-02T03:53:16;23.20;56.20
71208;DHT22;58938;49.868;8.646;2022-08-02T03:55:42;23.20;56.10
71208;DHT22;58938;49.868;8.646;2022-08-02T03:58:08;23.20;56.10
71208;DHT22;58938;49.868;8.646;2022-08-02T04:00:34;23.20;56.10
71208;DHT22;58938;49.868;8.646;2022-08-02T04:02:59;23.20;56.20
71208;DHT22;58938;49.868;8.646;2022-08-02T04:05:25;23.20;56.10
71208;DHT22;58938;49.868;8.646;2022-08-02T04:07:51;23.20;56.10
71208;DHT22;58938;49.868;8.646;2022-08-02T04:10:17;23.20;56.10
71208;DHT22;58938;49.868;8.646;2022-08-02T04:12:42;23.20;56.20
71208;DHT22;58938;49.868;8.646;2022-08-02T04:15:11;23.10;56.20
71208;DHT22;58938;49.868;8.646;2022-08-02T04:17:42;23.10;56.20
71208;DHT22;58938;49.868;8.646;2022-08-02T04:20:20;23.10;56.20
71208;DHT22;58938;49.868;8.646;2022-08-02T04:25:21;23.10;56.30
71208;DHT22;58938;49.868;8.646;2022-08-02T04:27:47;23.10;56.30
71208;DHT22;58938;49.868;8.646;2022-08-02T04:30:15;23.10;56.30
71208;DHT22;58938;49.868;8.646;2022-08-02T04:32:42;23.10;56.30
71208;DHT22;58938;49.868;8.646;2022-08-02T04:35:08;23.10;56.30
71208;DHT22;58938;49.868;8.646;2022-08-02T04:37:36;23.00;56.30
71208;DHT22;58938;49.868;8.646;2022-08-02T04:40:03;23.00;56.40
71208;DHT22;58938;49.868;8.646;2022-08-02T04:42:29;23.00;56.40
71208;DHT22;58938;49.868;8.646;2022-08-02T04:44:54;23.00;56.40
71208;DHT22;58938;49.868;8.646;2022-08-02T04:47:20;23.00;56.50
71208;DHT22;58938;49.868;8.646;2022-08-02T04:49:46;23.00;56.50
71208;DHT22;58938;49.868;8.646;2022-08-02T04:52:12;23.00;56.50
71208;DHT22;58938;49.868;8.646;2022-08-02T04:54:38;23.00;56.50
71208;DHT22;58938;49.868;8.646;2022-08-02T04:57:04;23.00;56.60
71208;DHT22;58938;49.868;8.646;2022-08-02T04:59:49;23.00;56.60
71208;DHT22;58938;49.868;8.646;2022-08-02T05:02:15;23.00;56.60
71208;DHT22;58938;49.868;8.646;2022-08-02T05:04:40;23.00;56.70
71208;DHT22;58938;49.868;8.646;2022-08-02T05:07:06;23.00;56.70
71208;DHT22;58938;49.868;8.646;2022-08-02T05:09:32;23.00;56.70
71208;DHT22;58938;49.868;8.646;2022-08-02T05:11:57;23.00;56.70
71208;DHT22;58938;49.868;8.646;2022-08-02T05:14:23;23.00;56.70
71208;DHT22;58938;49.868;8.646;2022-08-02T05:16:48;23.00;56.80
71208;DHT22;58938;49.868;8.646;2022-08-02T05:19:14;23.00;56.80
71208;DHT22;58938;49.868;8.646;2022-08-02T05:21:39;23.00;56.80
71208;DHT22;58938;49.868;8.646;2022-08-02T05:24:05;23.00;56.80
71208;DHT22;58938;49.868;8.646;2022-08-02T05:26:31;22.90;56.90
71208;DHT22;58938;49.868;8.646;2022-08-02T05:28:57;22.90;56.90
71208;DHT22;58938;49.868;8.646;2022-08-02T05:31:22;22.90;57.00
71208;DHT22;58938;49.868;8.646;2022-08-02T05:33:48;22.90;57.00
71208;DHT22;58938;49.868;8.646;2022-08-02T05:36:14;22.90;57.00
71208;DHT22;58938;49.868;8.646;2022-08-02T05:38:39;22.90;57.10
71208;DHT22;58938;49.868;8.646;2022-08-02T05:41:05;22.90;57.10
71208;DHT22;58938;49.868;8.646;2022-08-02T05:43:31;22.90;57.20
71208;DHT22;58938;49.868;8.646;2022-08-02T05:45:57;22.90;57.20
71208;DHT22;58938;49.868;8.646;2022-08-02T05:48:22;22.90;57.30
71208;DHT22;58938;49.868;8.646;2022-08-02T05:50:50;22.90;57.40
71208;DHT22;58938;49.868;8.646;2022-08-02T05:53:27;22.90;57.40
71208;DHT22;58938;49.868;8.646;2022-08-02T05:59:04;22.90;57.50
71208;DHT22;58938;49.868;8.646;2022-08-02T06:01:37;22.90;57.50
71208;DHT22;58938;49.868;8.646;2022-08-02T06:04:06;23.00;57.40
71208;DHT22;58938;49.868;8.646;2022-08-02T06:06:33;23.00;57.40
71208;DHT22;58938;49.868;8.646;2022-08-02T06:09:01;23.00;57.50
71208;DHT22;58938;49.868;8.646;2022-08-02T06:11:45;23.00;57.50
71208;DHT22;58938;49.868;8.646;2022-08-02T06:14:12;23.00;57.60
71208;DHT22;58938;49.868;8.646;2022-08-02T06:16:38;23.00;57.60
71208;DHT22;58938;49.868;8.646;2022-08-02T06:19:04;23.00;57.60
71208;DHT22;58938;49.868;8.646;2022-08-02T06:21:31;23.10;57.60
71208;DHT22;58938;49.868;8.646;2022-08-02T06:23:57;23.10;57.60
71208;DHT22;58938;49.868;8.646;2022-08-02T06:26:24;23.10;57.60
71208;DHT22;58938;49.868;8.646;2022-08-02T06:28:52;23.10;57.60
71208;DHT22;58938;49.868;8.646;2022-08-02T06:31:18;23.10;57.60
71208;DHT22;58938;49.868;8.646;2022-08-02T06:33:44;23.20;57.70
71208;DHT22;58938;49.868;8.646;2022-08-02T06:36:18;23.20;57.80
71208;DHT22;58938;49.868;8.646;2022-08-02T06:41:40;23.20;57.80
71208;DHT22;58938;49.868;8.646;2022-08-02T06:44:07;23.20;57.80
71208;DHT22;58938;49.868;8.646;2022-08-02T06:46:33;23.30;57.90
71208;DHT22;58938;49.868;8.646;2022-08-02T06:49:00;23.30;57.90
71208;DHT22;58938;49.868;8.646;2022-08-02T06:51:26;23.30;58.00
71208;DHT22;58938;49.868;8.646;2022-08-02T06:53:52;23.30;57.90
71208;DHT22;58938;49.868;8.646;2022-08-02T06:56:17;23.40;57.90
71208;DHT22;58938;49.868;8.646;2022-08-02T06:58:44;23.40;58.00
71208;DHT22;58938;49.868;8.646;2022-08-02T07:01:09;23.40;58.00
71208;DHT22;58938;49.868;8.646;2022-08-02T07:03:37;23.40;58.00
71208;DHT22;58938;49.868;8.646;2022-08-02T07:06:03;23.50;58.00
71208;DHT22;58938;49.868;8.646;2022-08-02T07:08:29;23.40;57.90
71208;DHT22;58938;49.868;8.646;2022-08-02T07:10:58;23.50;57.90
71208;DHT22;58938;49.868;8.646;2022-08-02T07:13:25;23.50;57.70
71208;DHT22;58938;49.868;8.646;2022-08-02T07:15:51;23.50;57.70
71208;DHT22;58938;49.868;8.646;2022-08-02T07:18:17;23.60;57.20
71208;DHT22;58938;49.868;8.646;2022-08-02T07:20:43;23.60;56.90
71208;DHT22;58938;49.868;8.646;2022-08-02T07:23:08;23.60;56.60
71208;DHT22;58938;49.868;8.646;2022-08-02T07:25:35;23.60;56.20
71208;DHT22;58938;49.868;8.646;2022-08-02T07:28:00;23.60;56.10
71208;DHT22;58938;49.868;8.646;2022-08-02T07:30:26;23.60;56.10
71208;DHT22;58938;49.868;8.646;2022-08-02T07:32:52;23.70;55.70
71208;DHT22;58938;49.868;8.646;2022-08-02T07:35:17;23.70;55.40
71208;DHT22;58938;49.868;8.646;2022-08-02T07:37:43;23.70;55.20
71208;DHT22;58938;49.868;8.646;2022-08-02T07:40:11;23.70;55.00
71208;DHT22;58938;49.868;8.646;2022-08-02T07:42:37;23.70;55.00
71208;DHT22;58938;49.868;8.646;2022-08-02T07:45:03;23.70;54.70
71208;DHT22;58938;49.868;8.646;2022-08-02T07:47:29;23.80;54.60
71208;DHT22;58938;49.868;8.646;2022-08-02T07:49:54;23.80;54.40
71208;DHT22;58938;49.868;8.646;2022-08-02T07:52:20;23.80;54.20
71208;DHT22;58938;49.868;8.646;2022-08-02T07:54:45;23.80;54.00
71208;DHT22;58938;49.868;8.646;2022-08-02T07:57:11;23.80;53.90
71208;DHT22;58938;49.868;8.646;2022-08-02T07:59:37;23.90;53.70
71208;DHT22;58938;49.868;8.646;2022-08-02T08:02:02;23.90;53.50
71208;DHT22;58938;49.868;8.646;2022-08-02T08:04:28;23.90;53.40
71208;DHT22;58938;49.868;8.646;2022-08-02T08:06:55;23.90;53.30
71208;DHT22;58938;49.868;8.646;2022-08-02T08:09:20;24.00;52.80
71208;DHT22;58938;49.868;8.646;2022-08-02T08:11:46;24.00;52.10
71208;DHT22;58938;49.868;8.646;2022-08-02T08:14:11;24.00;51.40
71208;DHT22;58938;49.868;8.646;2022-08-02T08:16:37;24.00;51.10
71208;DHT22;58938;49.868;8.646;2022-08-02T08:19:02;24.10;50.90
71208;DHT22;58938;49.868;8.646;2022-08-02T08:21:28;24.10;50.50
71208;DHT22;58938;49.868;8.646;2022-08-02T08:23:54;24.10;50.20
71208;DHT22;58938;49.868;8.646;2022-08-02T08:26:20;24.20;50.00
71208;DHT22;58938;49.868;8.646;2022-08-02T08:28:46;24.20;49.70
71208;DHT22;58938;49.868;8.646;2022-08-02T08:31:12;24.20;49.40
71208;DHT22;58938;49.868;8.646;2022-08-02T08:33:37;24.30;49.10
71208;DHT22;58938;49.868;8.646;2022-08-02T08:36:03;24.30;48.90
71208;DHT22;58938;49.868;8.646;2022-08-02T08:38:29;24.30;48.60
71208;DHT22;58938;49.868;8.646;2022-08-02T08:40:54;24.40;48.30
71208;DHT22;58938;49.868;8.646;2022-08-02T08:43:20;24.40;48.10
71208;DHT22;58938;49.868;8.646;2022-08-02T08:45:47;24.40;47.80
71208;DHT22;58938;49.868;8.646;2022-08-02T08:48:15;24.40;47.60
71208;DHT22;58938;49.868;8.646;2022-08-02T08:53:42;24.50;47.40
71208;DHT22;58938;49.868;8.646;2022-08-02T08:56:10;24.60;47.20
71208;DHT22;58938;49.868;8.646;2022-08-02T08:58:39;24.60;47.00
71208;DHT22;58938;49.868;8.646;2022-08-02T09:01:05;24.60;46.80
71208;DHT22;58938;49.868;8.646;2022-08-02T09:03:31;24.70;46.60
71208;DHT22;58938;49.868;8.646;2022-08-02T09:05:57;24.70;46.40
71208;DHT22;58938;49.868;8.646;2022-08-02T09:08:23;24.70;46.40
71208;DHT22;58938;49.868;8.646;2022-08-02T09:10:49;24.80;46.40
71208;DHT22;58938;49.868;8.646;2022-08-02T09:13:20;24.80;46.40
71208;DHT22;58938;49.868;8.646;2022-08-02T09:15:58;24.80;46.30
71208;DHT22;58938;49.868;8.646;2022-08-02T09:18:30;24.90;46.30
71208;DHT22;58938;49.868;8.646;2022-08-02T09:21:01;24.90;46.30
71208;DHT22;58938;49.868;8.646;2022-08-02T09:23:44;24.90;46.00
71208;DHT22;58938;49.868;8.646;2022-08-02T09:26:15;25.00;45.90
71208;DHT22;58938;49.868;8.646;2022-08-02T09:28:43;25.00;45.40
71208;DHT22;58938;49.868;8.646;2022-08-02T09:31:13;25.00;44.90
71208;DHT22;58938;49.868;8.646;2022-08-02T09:33:41;25.10;44.60
71208;DHT22;58938;49.868;8.646;2022-08-02T09:36:09;25.10;44.30
71208;DHT22;58938;49.868;8.646;2022-08-02T09:38:36;25.10;44.00
71208;DHT22;58938;49.868;8.646;2022-08-02T09:41:04;25.20;43.80
71208;DHT22;58938;49.868;8.646;2022-08-02T09:46:11;25.20;43.20
71208;DHT22;58938;49.868;8.646;2022-08-02T09:48:58;25.30;43.00
71208;DHT22;58938;49.868;8.646;2022-08-02T09:51:34;25.30;42.80
71208;DHT22;58938;49.868;8.646;2022-08-02T09:54:03;25.30;42.60
71208;DHT22;58938;49.868;8.646;2022-08-02T09:56:46;25.40;42.30
71208;DHT22;58938;49.868;8.646;2022-08-02T09:59:13;25.40;42.20
71208;DHT22;58938;49.868;8.646;2022-08-02T10:01:39;25.40;42.00
71208;DHT22;58938;49.868;8.646;2022-08-02T10:04:07;25.40;41.80
71208;DHT22;58938;49.868;8.646;2022-08-02T10:06:36;25.50;41.60
71208;DHT22;58938;49.868;8.646;2022-08-02T10:09:07;25.50;41.50
71208;DHT22;58938;49.868;8.646;2022-08-02T10:11:34;25.50;41.30
71208;DHT22;58938;49.868;8.646;2022-08-02T10:14:04;25.60;41.30
71208;DHT22;58938;49.868;8.646;2022-08-02T10:16:33;25.70;41.10
71208;DHT22;58938;49.868;8.646;2022-08-02T10:18:59;25.70;40.60
71208;DHT22;58938;49.868;8.646;2022-08-02T11:17:58;26.50;37.80
71208;DHT22;58938;49.868;8.646;2022-08-02T11:20:25;26.80;37.80
71208;DHT22;58938;49.868;8.646;2022-08-02T11:22:52;27.00;37.50
71208;DHT22;58938;49.868;8.646;2022-08-02T11:27:47;27.50;37.10
71208;DHT22;58938;49.868;8.646;2022-08-02T11:30:13;27.70;36.70
71208;DHT22;58938;49.868;8.646;2022-08-02T11:32:39;27.80;36.30
71208;DHT22;58938;49.868;8.646;2022-08-02T11:35:05;27.90;35.60
71208;DHT22;58938;49.868;8.646;2022-08-02T11:37:42;27.90;35.40
71208;DHT22;58938;49.868;8.646;2022-08-02T11:40:10;28.00;34.90
71208;DHT22;58938;49.868;8.646;2022-08-02T11:42:41;28.00;34.60
71208;DHT22;58938;49.868;8.646;2022-08-02T11:45:09;28.10;34.60
71208;DHT22;58938;49.868;8.646;2022-08-02T11:50:11;28.10;34.40
71208;DHT22;58938;49.868;8.646;2022-08-02T11:52:37;28.10;34.50
71208;DHT22;58938;49.868;8.646;2022-08-02T11:55:07;28.10;34.60
71208;DHT22;58938;49.868;8.646;2022-08-02T11:57:34;28.10;34.60
71208;DHT22;58938;49.868;8.646;2022-08-02T12:00:00;28.10;34.10
71208;DHT22;58938;49.868;8.646;2022-08-02T12:02:28;28.10;33.80
71208;DHT22;58938;49.868;8.646;2022-08-02T12:05:05;28.20;33.20
71208;DHT22;58938;49.868;8.646;2022-08-02T12:07:34;28.20;33.10
71208;DHT22;58938;49.868;8.646;2022-08-02T12:10:06;28.20;33.20
71208;DHT22;58938;49.868;8.646;2022-08-02T12:12:32;28.20;32.90
71208;DHT22;58938;49.868;8.646;2022-08-02T12:14:57;28.10;32.70
71208;DHT22;58938;49.868;8.646;2022-08-02T12:17:27;28.10;32.60
71208;DHT22;58938;49.868;8.646;2022-08-02T12:20:12;28.10;32.60
71208;DHT22;58938;49.868;8.646;2022-08-02T12:22:39;28.10;32.60
71208;DHT22;58938;49.868;8.646;2022-08-02T12:25:16;28.20;32.50
71208;DHT22;58938;49.868;8.646;2022-08-02T12:27:43;28.20;32.60
71208;DHT22;58938;49.868;8.646;2022-08-02T12:30:13;28.20;32.50
71208;DHT22;58938;49.868;8.646;2022-08-02T12:32:40;28.20;32.50
71208;DHT22;58938;49.868;8.646;2022-08-02T12:35:13;28.30;32.20
71208;DHT22;58938;49.868;8.646;2022-08-02T12:37:41;28.30;32.20
71208;DHT22;58938;49.868;8.646;2022-08-02T12:40:30;28.40;32.10
71208;DHT22;58938;49.868;8.646;2022-08-02T12:43:01;28.40;32.00
71208;DHT22;58938;49.868;8.646;2022-08-02T12:45:30;28.40;31.70
71208;DHT22;58938;49.868;8.646;2022-08-02T12:47:57;28.40;31.70
71208;DHT22;58938;49.868;8.646;2022-08-02T12:50:24;28.50;31.80
71208;DHT22;58938;49.868;8.646;2022-08-02T12:55:33;28.50;31.80
71208;DHT22;58938;49.868;8.646;2022-08-02T12:58:04;28.50;31.60
71208;DHT22;58938;49.868;8.646;2022-08-02T13:00:34;28.50;31.30
71208;DHT22;58938;49.868;8.646;2022-08-02T13:03:00;28.60;31.00
71208;DHT22;58938;49.868;8.646;2022-08-02T13:05:27;28.60;31.00
71208;DHT22;58938;49.868;8.646;2022-08-02T13:07:54;28.60;30.70
71208;DHT22;58938;49.868;8.646;2022-08-02T13:10:21;28.60;30.60
71208;DHT22;58938;49.868;8.646;2022-08-02T13:12:47;28.60;30.50
71208;DHT22;58938;49.868;8.646;2022-08-02T13:15:13;28.60;30.40
71208;DHT22;58938;49.868;8.646;2022-08-02T13:17:39;28.70;30.40
71208;DHT22;58938;49.868;8.646;2022-08-02T13:20:06;28.70;30.20
71208;DHT22;58938;49.868;8.646;2022-08-02T13:22:32;28.70;30.00
71208;DHT22;58938;49.868;8.646;2022-08-02T13:24:57;28.80;29.90
71208;DHT22;58938;49.868;8.646;2022-08-02T13:27:24;28.80;29.80
71208;DHT22;58938;49.868;8.646;2022-08-02T13:29:51;28.80;29.80
71208;DHT22;58938;49.868;8.646;2022-08-02T13:32:18;28.80;29.60
71208;DHT22;58938;49.868;8.646;2022-08-02T13:34:43;28.90;29.70
71208;DHT22;58938;49.868;8.646;2022-08-02T13:37:09;28.90;29.70
71208;DHT22;58938;49.868;8.646;2022-08-02T13:39:34;28.90;29.60
71208;DHT22;58938;49.868;8.646;2022-08-02T13:42:00;29.00;29.30
71208;DHT22;58938;49.868;8.646;2022-08-02T13:44:25;29.00;29.10
71208;DHT22;58938;49.868;8.646;2022-08-02T13:46:51;29.00;28.80
71208;DHT22;58938;49.868;8.646;2022-08-02T13:49:17;29.10;28.10
71208;DHT22;58938;49.868;8.646;2022-08-02T13:51:42;29.10;28.20
71208;DHT22;58938;49.868;8.646;2022-08-02T13:54:08;29.10;28.50
71208;DHT22;58938;49.868;8.646;2022-08-02T13:56:33;29.10;28.60
71208;DHT22;58938;49.868;8.646;2022-08-02T13:58:59;29.10;28.50
71208;DHT22;58938;49.868;8.646;2022-08-02T14:01:25;29.10;28.80
71208;DHT22;58938;49.868;8.646;2022-08-02T14:03:51;29.10;29.10
71208;DHT22;58938;49.868;8.646;2022-08-02T14:06:21;29.10;29.60
71208;DHT22;58938;49.868;8.646;2022-08-02T14:08:47;29.00;30.00
71208;DHT22;58938;49.868;8.646;2022-08-02T14:11:13;29.00;29.70
71208;DHT22;58938;49.868;8.646;2022-08-02T14:13:38;29.00;29.70
71208;DHT22;58938;49.868;8.646;2022-08-02T14:16:04;29.00;30.30
71208;DHT22;58938;49.868;8.646;2022-08-02T14:18:30;29.00;31.10
71208;DHT22;58938;49.868;8.646;2022-08-02T14:20:55;28.90;30.50
71208;DHT22;58938;49.868;8.646;2022-08-02T14:23:21;28.90;30.10
71208;DHT22;58938;49.868;8.646;2022-08-02T14:25:47;28.90;30.00
71208;DHT22;58938;49.868;8.646;2022-08-02T14:28:13;28.90;29.90
71208;DHT22;58938;49.868;8.646;2022-08-02T14:30:39;28.80;30.20
71208;DHT22;58938;49.868;8.646;2022-08-02T14:33:04;28.80;30.20
71208;DHT22;58938;49.868;8.646;2022-08-02T14:35:30;28.80;29.80
71208;DHT22;58938;49.868;8.646;2022-08-02T14:37:56;28.90;29.40
71208;DHT22;58938;49.868;8.646;2022-08-02T14:40:22;28.90;29.30
71208;DHT22;58938;49.868;8.646;2022-08-02T14:42:48;28.90;29.10
71208;DHT22;58938;49.868;8.646;2022-08-02T14:45:16;28.90;28.80
71208;DHT22;58938;49.868;8.646;2022-08-02T14:47:43;29.00;29.10
71208;DHT22;58938;49.868;8.646;2022-08-02T14:50:08;29.00;28.80
71208;DHT22;58938;49.868;8.646;2022-08-02T14:52:35;29.00;28.60
71208;DHT22;58938;49.868;8.646;2022-08-02T14:55:01;29.10;28.30
71208;DHT22;58938;49.868;8.646;2022-08-02T14:57:28;29.10;28.00
71208;DHT22;58938;49.868;8.646;2022-08-02T14:59:54;29.10;27.50
71208;DHT22;58938;49.868;8.646;2022-08-02T15:02:20;29.10;27.40
71208;DHT22;58938;49.868;8.646;2022-08-02T15:04:45;29.20;27.00
71208;DHT22;58938;49.868;8.646;2022-08-02T15:07:11;29.20;27.80
71208;DHT22;58938;49.868;8.646;2022-08-02T15:09:37;29.20;28.30
71208;DHT22;58938;49.868;8.646;2022-08-02T15:12:03;29.20;28.50
71208;DHT22;58938;49.868;8.646;2022-08-02T15:14:29;29.20;28.50
71208;DHT22;58938;49.868;8.646;2022-08-02T15:16:54;29.20;28.30
71208;DHT22;58938;49.868;8.646;2022-08-02T15:19:20;29.20;28.00
71208;DHT22;58938;49.868;8.646;2022-08-02T15:21:45;29.20;28.40
71208;DHT22;58938;49.868;8.646;2022-08-02T15:24:11;29.20;28.50
71208;DHT22;58938;49.868;8.646;2022-08-02T15:26:37;29.20;28.80
71208;DHT22;58938;49.868;8.646;2022-08-02T15:29:03;29.10;29.30
71208;DHT22;58938;49.868;8.646;2022-08-02T15:31:29;29.10;29.40
71208;DHT22;58938;49.868;8.646;2022-08-02T15:33:55;29.10;28.70
71208;DHT22;58938;49.868;8.646;2022-08-02T15:36:20;29.10;28.50
71208;DHT22;58938;49.868;8.646;2022-08-02T15:38:47;29.20;28.40
71208;DHT22;58938;49.868;8.646;2022-08-02T15:41:12;29.20;28.10
71208;DHT22;58938;49.868;8.646;2022-08-02T15:43:38;29.20;28.30
71208;DHT22;58938;49.868;8.646;2022-08-02T15:46:03;29.30;28.40
71208;DHT22;58938;49.868;8.646;2022-08-02T15:48:30;29.30;28.70
71208;DHT22;58938;49.868;8.646;2022-08-02T15:50:56;29.30;29.40
71208;DHT22;58938;49.868;8.646;2022-08-02T15:53:22;29.20;29.80
71208;DHT22;58938;49.868;8.646;2022-08-02T15:55:48;29.20;30.70
71208;DHT22;58938;49.868;8.646;2022-08-02T15:58:15;29.20;31.30
71208;DHT22;58938;49.868;8.646;2022-08-02T16:00:41;29.20;30.70
71208;DHT22;58938;49.868;8.646;2022-08-02T16:03:06;29.10;30.10
71208;DHT22;58938;49.868;8.646;2022-08-02T16:05:32;29.10;29.60
71208;DHT22;58938;49.868;8.646;2022-08-02T16:07:57;29.20;29.50
71208;DHT22;58938;49.868;8.646;2022-08-02T16:10:23;29.20;29.60
71208;DHT22;58938;49.868;8.646;2022-08-02T16:12:49;29.20;29.50
71208;DHT22;58938;49.868;8.646;2022-08-02T16:15:15;29.20;29.50
71208;DHT22;58938;49.868;8.646;2022-08-02T16:17:40;29.20;29.10
71208;DHT22;58938;49.868;8.646;2022-08-02T16:20:06;29.20;29.50
71208;DHT22;58938;49.868;8.646;2022-08-02T16:22:32;29.20;29.80
71208;DHT22;58938;49.868;8.646;2022-08-02T16:24:58;29.20;29.40
71208;DHT22;58938;49.868;8.646;2022-08-02T16:27:23;29.20;29.20
71208;DHT22;58938;49.868;8.646;2022-08-02T16:29:49;29.20;29.50
71208;DHT22;58938;49.868;8.646;2022-08-02T16:32:15;29.20;29.60
71208;DHT22;58938;49.868;8.646;2022-08-02T16:34:41;29.20;29.60
71208;DHT22;58938;49.868;8.646;2022-08-02T16:37:07;29.20;29.70
71208;DHT22;58938;49.868;8.646;2022-08-02T16:39:32;29.20;30.00
71208;DHT22;58938;49.868;8.646;2022-08-02T16:41:58;29.20;29.60
71208;DHT22;58938;49.868;8.646;2022-08-02T16:44:24;29.20;29.40
71208;DHT22;58938;49.868;8.646;2022-08-02T16:46:53;29.20;30.00
71208;DHT22;58938;49.868;8.646;2022-08-02T16:49:19;29.20;30.10